createdAt,value
2023-01-29T00:07:13.136Z,5.45
2023-01-29T00:17:17.669Z,6.65
2023-01-29T00:27:21.363Z,4.38
2023-01-29T00:37:25.825Z,4.07
2023-01-29T00:47:33.840Z,5.95
2023-01-29T00:57:41.540Z,4.15
2023-01-29T01:07:44.955Z,7.00
2023-01-29T01:17:53.164Z,5.00
2023-01-29T01:38:02.917Z,8.02
2023-01-29T01:48:11.676Z,5.85
2023-01-29T01:58:23.477Z,14.25
2023-01-29T02:08:55.136Z,12.40
2023-01-29T02:18:59.854Z,13.68
2023-01-29T02:29:30.773Z,10.68
2023-01-29T02:39:41.806Z,13.02
2023-01-29T02:49:52.648Z,14.60
2023-01-29T02:59:59.647Z,16.98
2023-01-29T03:10:07.412Z,14.45
2023-01-29T03:20:17.648Z,14.45
2023-01-29T03:30:44.441Z,16.05
2023-01-29T03:40:53.067Z,18.13
2023-01-29T03:51:08.112Z,18.58
2023-01-29T04:01:17.237Z,16.42
2023-01-29T04:11:23.724Z,17.65
2023-01-29T04:21:27.337Z,21.13
2023-01-29T04:31:39.140Z,16.00
2023-01-29T04:41:51.939Z,17.27
2023-01-29T04:52:06.073Z,14.93
2023-01-29T05:02:11.321Z,17.80
2023-01-29T05:12:19.552Z,15.02
2023-01-29T05:22:23.520Z,15.40
2023-01-29T05:32:27.917Z,12.95
2023-01-29T05:42:31.135Z,12.18
2023-01-29T05:52:40.014Z,13.88
2023-01-29T06:02:43.841Z,12.63
2023-01-29T06:12:48.721Z,13.48
2023-01-29T06:22:51.634Z,20.48
2023-01-29T06:32:59.107Z,12.40
2023-01-29T06:43:02.130Z,12.38
2023-01-29T06:53:06.494Z,11.38
2023-01-29T07:03:11.341Z,7.72
2023-01-29T07:13:16.183Z,8.95
2023-01-29T07:23:19.549Z,10.98
2023-01-29T07:33:24.003Z,8.88
2023-01-29T07:43:27.402Z,9.02
2023-01-29T07:53:32.135Z,7.72
2023-01-29T08:03:35.210Z,4.90
2023-01-29T08:13:47.548Z,4.20
2023-01-29T08:23:50.584Z,10.50
2023-01-29T08:33:55.972Z,7.97
2023-01-29T08:44:00.744Z,5.00
2023-01-29T08:54:05.174Z,4.07
2023-01-29T09:04:08.247Z,6.53
2023-01-29T09:14:14.719Z,6.28
2023-01-29T09:24:17.923Z,5.00
2023-01-29T09:34:22.753Z,6.03
2023-01-29T09:44:46.483Z,5.63
2023-01-29T09:54:58.607Z,5.72
2023-01-29T10:05:20.633Z,3.80
2023-01-29T10:15:43.461Z,4.95
2023-01-29T10:25:50.204Z,4.95
2023-01-29T10:35:59.888Z,3.55
2023-01-29T10:46:16.490Z,4.35
2023-01-29T10:56:48.072Z,6.00
2023-01-29T11:07:00.447Z,3.40
2023-01-29T11:17:33.697Z,2.83
2023-01-29T11:27:43.444Z,3.83
2023-01-29T11:37:48.708Z,5.05
2023-01-29T11:47:57.700Z,6.05
2023-01-29T11:58:06.774Z,4.57
2023-01-29T12:08:18.466Z,6.88
2023-01-29T12:18:34.993Z,4.90
2023-01-29T12:28:48.255Z,9.40
2023-01-29T12:38:52.903Z,5.45
2023-01-29T12:49:04.141Z,5.32
2023-01-29T12:59:19.260Z,6.25
2023-01-29T13:09:26.704Z,7.80
2023-01-29T13:19:35.413Z,5.00
2023-01-29T13:29:38.415Z,6.75
2023-01-29T13:39:50.097Z,3.70
2023-01-29T13:50:07.408Z,4.00
2023-01-29T14:00:50.846Z,10.27
2023-01-29T14:11:37.030Z,7.33
2023-01-29T14:22:00.020Z,5.50
2023-01-29T14:32:15.915Z,8.35
2023-01-29T14:42:24.384Z,4.20
2023-01-29T14:52:37.812Z,4.47
2023-01-29T15:02:45.040Z,5.13
2023-01-29T15:12:53.010Z,4.28
2023-01-29T15:22:57.733Z,5.10
2023-01-29T15:33:02.846Z,5.45
2023-01-29T15:43:21.923Z,6.18
2023-01-29T15:53:30.097Z,6.60
2023-01-29T16:03:37.918Z,3.92
2023-01-29T16:13:47.520Z,5.90
2023-01-29T16:23:57.728Z,4.97
2023-01-29T16:34:10.330Z,7.10
2023-01-29T16:44:38.081Z,7.25
2023-01-29T16:54:45.435Z,8.55
2023-01-29T17:05:06.891Z,6.40
2023-01-29T17:15:40.139Z,5.20
2023-01-29T17:25:45.682Z,4.82
2023-01-29T17:35:50.007Z,3.55
2023-01-29T17:45:54.642Z,5.32
2023-01-29T17:55:57.758Z,5.57
2023-01-29T18:06:02.207Z,11.98
2023-01-29T18:16:05.700Z,6.38
2023-01-29T18:26:13.129Z,8.73
2023-01-29T18:36:16.187Z,6.28
2023-01-29T18:59:06.689Z,10.23
2023-01-29T19:09:04.659Z,5.22
2023-01-29T19:19:53.395Z,6.10
2023-01-29T19:30:06.844Z,7.15
2023-01-29T19:51:13.870Z,4.77
2023-01-29T20:11:54.846Z,12.82
2023-01-29T20:22:01.061Z,4.68
2023-01-29T20:32:13.108Z,7.07
2023-01-29T20:42:19.947Z,9.40
2023-01-29T21:04:32.272Z,6.03
2023-01-29T21:14:39.688Z,8.70
2023-01-29T21:24:46.437Z,11.75
2023-01-29T21:34:52.505Z,7.47
2023-01-29T21:45:01.708Z,8.93
2023-01-29T21:55:06.162Z,13.02
2023-01-29T22:05:19.462Z,9.32
2023-01-29T22:15:25.334Z,7.18
2023-01-29T22:25:30.426Z,7.50
2023-01-29T22:35:36.184Z,8.98
2023-01-29T22:45:44.905Z,7.95
2023-01-29T22:55:54.857Z,7.72
2023-01-29T23:05:59.374Z,9.45
2023-01-29T23:16:02.386Z,8.40
2023-01-29T23:26:29.316Z,12.13
2023-01-29T23:36:32.289Z,10.73
2023-01-29T23:46:36.961Z,8.73
2023-01-29T23:56:40.377Z,11.63
